sensor_id;sensor_type;location;lat;lon;timestamp;pressure;altitude;pressure_sealevel;temperature;humidity
12475;BME280;6302;42.624;23.334;2023-05-09T00:01:20;93601.84;;;12.95;100.00
12475;BME280;6302;42.624;23.334;2023-05-09T00:03:48;93600.69;;;12.96;100.00
12475;BME280;6302;42.624;23.334;2023-05-09T00:06:15;93601.41;;;13.00;100.00
12475;BME280;6302;42.624;23.334;2023-05-09T00:08:42;93598.03;;;12.96;100.00
12475;BME280;6302;42.624;23.334;2023-05-09T00:11:09;93592.28;;;13.01;100.00
12475;BME280;6302;42.624;23.334;2023-05-09T00:13:36;93588.88;;;12.97;100.00
12475;BME280;6302;42.624;23.334;2023-05-09T00:16:03;93597.94;;;13.03;100.00
12475;BME280;6302;42.624;23.334;2023-05-09T00:18:30;93596.03;;;13.03;100.00
12475;BME280;6302;42.624;23.334;2023-05-09T00:20:59;93594.88;;;13.04;100.00
12475;BME280;6302;42.624;23.334;2023-05-09T00:23:27;93594.13;;;13.04;100.00
12475;BME280;6302;42.624;23.334;2023-05-09T00:25:54;93591.09;;;13.02;100.00
12475;BME280;6302;42.624;23.334;2023-05-09T00:28:20;93582.47;;;12.94;100.00
12475;BME280;6302;42.624;23.334;2023-05-09T00:30:48;93582.47;;;12.94;100.00
12475;BME280;6302;42.624;23.334;2023-05-09T00:33:15;93580.56;;;12.95;100.00
12475;BME280;6302;42.624;23.334;2023-05-09T00:35:42;93533.44;;;12.65;100.00
12475;BME280;6302;42.624;23.334;2023-05-09T00:38:10;93589.25;;;12.99;100.00
12475;BME280;6302;42.624;23.334;2023-05-09T00:40:37;93584.28;;;13.01;100.00
12475;BME280;6302;42.624;23.334;2023-05-09T00:43:04;93581.63;;;13.01;100.00
12475;BME280;6302;42.624;23.334;2023-05-09T00:45:31;93582.44;;;12.98;100.00
12475;BME280;6302;42.624;23.334;2023-05-09T00:47:58;93580.88;;;13.00;100.00
12475;BME280;6302;42.624;23.334;2023-05-09T00:50:25;93585.00;;;13.05;100.00
12475;BME280;6302;42.624;23.334;2023-05-09T00:52:52;93584.66;;;13.03;100.00
12475;BME280;6302;42.624;23.334;2023-05-09T00:55:22;93582.72;;;13.07;100.00
12475;BME280;6302;42.624;23.334;2023-05-09T00:57:49;93578.56;;;13.02;100.00
12475;BME280;6302;42.624;23.334;2023-05-09T01:00:16;93582.03;;;12.99;100.00
12475;BME280;6302;42.624;23.334;2023-05-09T01:02:44;93581.63;;;13.01;100.00
12475;BME280;6302;42.624;23.334;2023-05-09T01:05:12;93582.56;;;12.87;100.00
12475;BME280;6302;42.624;23.334;2023-05-09T01:07:54;93593.22;;;12.84;100.00
12475;BME280;6302;42.624;23.334;2023-05-09T01:10:30;93581.03;;;12.86;100.00
12475;BME280;6302;42.624;23.334;2023-05-09T01:13:03;93582.72;;;12.73;100.00
12475;BME280;6302;42.624;23.334;2023-05-09T01:15:35;93581.94;;;12.76;100.00
12475;BME280;6302;42.624;23.334;2023-05-09T01:18:06;93583.53;;;12.67;100.00
12475;BME280;6302;42.624;23.334;2023-05-09T01:20:37;93581.28;;;12.65;100.00
12475;BME280;6302;42.624;23.334;2023-05-09T01:23:23;93584.72;;;12.66;100.00
12475;BME280;6302;42.624;23.334;2023-05-09T01:26:01;93578.97;;;12.71;100.00
12475;BME280;6302;42.624;23.334;2023-05-09T01:28:34;93584.97;;;12.75;100.00
12475;BME280;6302;42.624;23.334;2023-05-09T01:31:05;93579.56;;;12.82;100.00
12475;BME280;6302;42.624;23.334;2023-05-09T01:33:35;93580.31;;;12.86;100.00
12475;BME280;6302;42.624;23.334;2023-05-09T01:36:08;93580.66;;;12.88;100.00
12475;BME280;6302;42.624;23.334;2023-05-09T01:38:38;93580.22;;;12.93;100.00
12475;BME280;6302;42.624;23.334;2023-05-09T01:41:08;93583.22;;;12.95;100.00
12475;BME280;6302;42.624;23.334;2023-05-09T01:43:37;93581.25;;;12.99;100.00
12475;BME280;6302;42.624;23.334;2023-05-09T01:46:05;93584.31;;;12.97;100.00
12475;BME280;6302;42.624;23.334;2023-05-09T01:48:35;93577.09;;;12.98;100.00
12475;BME280;6302;42.624;23.334;2023-05-09T01:51:03;93584.69;;;12.99;100.00
12475;BME280;6302;42.624;23.334;2023-05-09T01:53:31;93587.31;;;13.03;100.00
12475;BME280;6302;42.624;23.334;2023-05-09T01:55:59;93580.47;;;13.02;100.00
12475;BME280;6302;42.624;23.334;2023-05-09T01:58:27;93583.13;;;13.02;100.00
12475;BME280;6302;42.624;23.334;2023-05-09T02:00:56;93583.88;;;13.02;100.00
12475;BME280;6302;42.624;23.334;2023-05-09T02:03:25;93578.56;;;13.02;100.00
12475;BME280;6302;42.624;23.334;2023-05-09T02:05:54;93581.63;;;13.01;100.00
12475;BME280;6302;42.624;23.334;2023-05-09T02:08:22;93576.31;;;13.01;100.00
12475;BME280;6302;42.624;23.334;2023-05-09T02:10:49;93577.81;;;13.02;100.00
12475;BME280;6302;42.624;23.334;2023-05-09T02:13:16;93574.00;;;13.03;100.00
12475;BME280;6302;42.624;23.334;2023-05-09T02:15:43;93575.50;;;13.04;100.00
12475;BME280;6302;42.624;23.334;2023-05-09T02:18:10;93571.00;;;13.01;100.00
12475;BME280;6302;42.624;23.334;2023-05-09T02:20:38;93569.47;;;13.00;100.00
12475;BME280;6302;42.624;23.334;2023-05-09T02:23:05;93568.69;;;13.03;100.00
12475;BME280;6302;42.624;23.334;2023-05-09T02:25:33;93574.09;;;12.96;100.00
12475;BME280;6302;42.624;23.334;2023-05-09T02:28:00;93571.06;;;12.94;100.00
12475;BME280;6302;42.624;23.334;2023-05-09T02:30:32;93571.44;;;12.96;100.00
12475;BME280;6302;42.624;23.334;2023-05-09T02:33:02;93579.78;;;12.98;100.00
12475;BME280;6302;42.624;23.334;2023-05-09T02:35:30;93577.47;;;13.00;100.00
12475;BME280;6302;42.624;23.334;2023-05-09T02:37:59;93573.28;;;12.99;100.00
12475;BME280;6302;42.624;23.334;2023-05-09T02:40:27;93571.00;;;13.01;100.00
12475;BME280;6302;42.624;23.334;2023-05-09T02:42:55;93572.50;;;13.02;100.00
12475;BME280;6302;42.624;23.334;2023-05-09T02:45:22;93575.16;;;13.02;100.00
12475;BME280;6302;42.624;23.334;2023-05-09T02:47:49;93580.13;;;13.00;100.00
12475;BME280;6302;42.624;23.334;2023-05-09T02:50:16;93578.16;;;13.04;100.00
12475;BME280;6302;42.624;23.334;2023-05-09T02:52:43;93574.00;;;13.03;100.00
12475;BME280;6302;42.624;23.334;2023-05-09T02:55:11;93577.41;;;13.03;100.00
12475;BME280;6302;42.624;23.334;2023-05-09T02:57:38;93581.97;;;13.03;100.00
12475;BME280;6302;42.624;23.334;2023-05-09T03:00:06;93578.97;;;13.01;100.00
12475;BME280;6302;42.624;23.334;2023-05-09T03:02:34;93569.88;;;12.98;100.00
12475;BME280;6302;42.624;23.334;2023-05-09T03:05:01;93576.38;;;12.94;100.00
12475;BME280;6302;42.624;23.334;2023-05-09T03:07:27;93590.41;;;12.98;100.00
12475;BME280;6302;42.624;23.334;2023-05-09T03:09:55;93587.00;;;12.97;100.00
12475;BME280;6302;42.624;23.334;2023-05-09T03:12:23;93584.75;;;12.96;100.00
12475;BME280;6302;42.624;23.334;2023-05-09T03:14:50;93579.41;;;12.96;100.00
12475;BME280;6302;42.624;23.334;2023-05-09T03:17:16;93588.56;;;12.91;100.00
12475;BME280;6302;42.624;23.334;2023-05-09T03:19:45;93587.16;;;12.83;100.00
12475;BME280;6302;42.624;23.334;2023-05-09T03:22:12;93598.84;;;12.89;100.00
12475;BME280;6302;42.624;23.334;2023-05-09T03:24:39;93600.75;;;12.89;100.00
12475;BME280;6302;42.624;23.334;2023-05-09T03:27:06;93609.59;;;12.82;100.00
12475;BME280;6302;42.624;23.334;2023-05-09T03:29:34;93609.63;;;12.79;100.00
12475;BME280;6302;42.624;23.334;2023-05-09T03:32:01;93616.84;;;12.78;100.00
12475;BME280;6302;42.624;23.334;2023-05-09T03:34:28;93623.72;;;12.76;100.00
12475;BME280;6302;42.624;23.334;2023-05-09T03:36:55;93624.09;;;12.74;100.00
12475;BME280;6302;42.624;23.334;2023-05-09T03:39:21;93624.94;;;12.68;100.00
12475;BME280;6302;42.624;23.334;2023-05-09T03:41:48;93630.63;;;12.70;100.00
12475;BME280;6302;42.624;23.334;2023-05-09T03:44:15;93624.94;;;12.68;100.00
12475;BME280;6302;42.624;23.334;2023-05-09T03:46:43;93627.59;;;12.68;100.00
12475;BME280;6302;42.624;23.334;2023-05-09T03:49:10;93628.31;;;12.72;100.00
12475;BME280;6302;42.624;23.334;2023-05-09T03:51:37;93619.97;;;12.70;100.00
12475;BME280;6302;42.624;23.334;2023-05-09T03:54:04;93625.28;;;12.70;100.00
12475;BME280;6302;42.624;23.334;2023-05-09T03:56:31;93629.91;;;12.66;100.00
12475;BME280;6302;42.624;23.334;2023-05-09T03:58:58;93634.06;;;12.67;100.00
12475;BME280;6302;42.624;23.334;2023-05-09T04:01:25;93629.47;;;12.71;100.00
12475;BME280;6302;42.624;23.334;2023-05-09T04:03:53;93630.50;;;12.80;100.00
12475;BME280;6302;42.624;23.334;2023-05-09T04:06:22;93630.88;;;12.82;100.00
12475;BME280;6302;42.624;23.334;2023-05-09T04:08:49;93639.53;;;12.86;100.00
12475;BME280;6302;42.624;23.334;2023-05-09T04:11:15;93635.72;;;12.91;100.00
12475;BME280;6302;42.624;23.334;2023-05-09T04:13:42;93633.75;;;12.95;100.00
12475;BME280;6302;42.624;23.334;2023-05-09T04:16:09;93631.81;;;12.99;100.00
12475;BME280;6302;42.624;23.334;2023-05-09T04:18:36;93632.53;;;13.03;100.00
12475;BME280;6302;42.624;23.334;2023-05-09T04:21:05;93634.41;;;13.06;100.00
12475;BME280;6302;42.624;23.334;2023-05-09T04:23:32;93636.63;;;13.11;100.00
12475;BME280;6302;42.624;23.334;2023-05-09T04:25:59;93637.72;;;13.17;100.00
12475;BME280;6302;42.624;23.334;2023-05-09T04:28:26;93631.28;;;13.15;100.00
12475;BME280;6302;42.624;23.334;2023-05-09T04:30:53;93638.47;;;13.18;100.00
12475;BME280;6302;42.624;23.334;2023-05-09T04:33:20;93628.59;;;13.18;100.00
12475;BME280;6302;42.624;23.334;2023-05-09T04:35:48;93633.53;;;13.16;100.00
12475;BME280;6302;42.624;23.334;2023-05-09T04:38:16;93631.25;;;13.18;100.00
12475;BME280;6302;42.624;23.334;2023-05-09T04:40:43;93640.63;;;13.26;100.00
12475;BME280;6302;42.624;23.334;2023-05-09T04:43:10;93633.28;;;13.37;100.00
12475;BME280;6302;42.624;23.334;2023-05-09T04:45:37;93639.25;;;13.45;100.00
12475;BME280;6302;42.624;23.334;2023-05-09T04:48:04;93639.19;;;13.48;100.00
12475;BME280;6302;42.624;23.334;2023-05-09T04:50:31;93637.53;;;13.58;100.00
12475;BME280;6302;42.624;23.334;2023-05-09T04:52:58;93650.72;;;13.68;100.00
12475;BME280;6302;42.624;23.334;2023-05-09T04:55:26;93644.03;;;13.84;100.00
12475;BME280;6302;42.624;23.334;2023-05-09T04:57:53;93635.13;;;13.94;100.00
12475;BME280;6302;42.624;23.334;2023-05-09T05:00:19;93639.66;;;13.97;100.00
12475;BME280;6302;42.624;23.334;2023-05-09T05:02:47;93645.75;;;13.97;100.00
12475;BME280;6302;42.624;23.334;2023-05-09T05:05:13;93643.34;;;14.03;100.00
12475;BME280;6302;42.624;23.334;2023-05-09T05:07:40;93635.59;;;14.12;100.00
12475;BME280;6302;42.624;23.334;2023-05-09T05:10:08;93648.28;;;14.31;100.00
12475;BME280;6302;42.624;23.334;2023-05-09T05:12:36;93641.38;;;14.30;100.00
12475;BME280;6302;42.624;23.334;2023-05-09T05:15:04;93635.22;;;14.37;100.00
12475;BME280;6302;42.624;23.334;2023-05-09T05:17:31;93641.19;;;14.44;100.00
12475;BME280;6302;42.624;23.334;2023-05-09T05:19:58;93643.63;;;14.35;100.00
12475;BME280;6302;42.624;23.334;2023-05-09T05:22:25;93636.47;;;14.28;100.00
12475;BME280;6302;42.624;23.334;2023-05-09T05:24:52;93641.06;;;14.28;100.00
12475;BME280;6302;42.624;23.334;2023-05-09T05:27:18;93645.41;;;14.18;100.00
12475;BME280;6302;42.624;23.334;2023-05-09T05:29:47;93644.72;;;14.14;100.00
12475;BME280;6302;42.624;23.334;2023-05-09T05:32:13;93640.97;;;14.08;100.00
12475;BME280;6302;42.624;23.334;2023-05-09T05:34:40;93644.53;;;14.02;100.00
12475;BME280;6302;42.624;23.334;2023-05-09T05:37:07;93649.56;;;13.96;100.00
12475;BME280;6302;42.624;23.334;2023-05-09T05:39:34;93648.91;;;13.89;100.00
12475;BME280;6302;42.624;23.334;2023-05-09T05:42:00;93647.44;;;13.84;100.00
12475;BME280;6302;42.624;23.334;2023-05-09T05:44:27;93647.78;;;13.86;100.00
12475;BME280;6302;42.624;23.334;2023-05-09T05:46:55;93644.47;;;13.79;100.00
12475;BME280;6302;42.624;23.334;2023-05-09T05:49:22;93645.56;;;13.85;100.00
12475;BME280;6302;42.624;23.334;2023-05-09T05:51:50;93647.03;;;13.86;100.00
12475;BME280;6302;42.624;23.334;2023-05-09T05:54:17;93642.88;;;13.85;100.00
12475;BME280;6302;42.624;23.334;2023-05-09T05:56:43;93650.75;;;13.92;100.00
12475;BME280;6302;42.624;23.334;2023-05-09T05:59:10;93654.19;;;13.92;100.00
12475;BME280;6302;42.624;23.334;2023-05-09T06:01:37;93651.56;;;13.89;100.00
12475;BME280;6302;42.624;23.334;2023-05-09T06:04:05;93647.34;;;13.91;100.00
12475;BME280;6302;42.624;23.334;2023-05-09T06:06:32;93643.16;;;13.90;100.00
12475;BME280;6302;42.624;23.334;2023-05-09T06:08:59;93645.19;;;13.83;100.00
12475;BME280;6302;42.624;23.334;2023-05-09T06:11:26;93650.56;;;13.79;100.00
12475;BME280;6302;42.624;23.334;2023-05-09T06:13:52;93651.22;;;13.87;100.00
12475;BME280;6302;42.624;23.334;2023-05-09T06:16:19;93655.28;;;13.95;100.00
12475;BME280;6302;42.624;23.334;2023-05-09T06:18:47;93648.00;;;13.99;100.00
12475;BME280;6302;42.624;23.334;2023-05-09T06:21:15;93654.41;;;14.01;100.00
12475;BME280;6302;42.624;23.334;2023-05-09T06:23:42;93649.13;;;13.98;100.00
12475;BME280;6302;42.624;23.334;2023-05-09T06:26:09;93645.66;;;14.01;100.00
12475;BME280;6302;42.624;23.334;2023-05-09T06:28:37;93645.56;;;14.08;100.00
12475;BME280;6302;42.624;23.334;2023-05-09T06:31:04;93648.09;;;14.15;100.00
12475;BME280;6302;42.624;23.334;2023-05-09T06:33:31;93651.16;;;14.17;100.00
12475;BME280;6302;42.624;23.334;2023-05-09T06:35:58;93653.69;;;14.24;100.00
12475;BME280;6302;42.624;23.334;2023-05-09T06:38:26;93651.28;;;14.33;100.00
12475;BME280;6302;42.624;23.334;2023-05-09T06:40:53;93638.38;;;14.28;100.00
12475;BME280;6302;42.624;23.334;2023-05-09T06:43:20;93653.69;;;14.24;100.00
12475;BME280;6302;42.624;23.334;2023-05-09T06:45:46;93659.28;;;14.29;100.00
12475;BME280;6302;42.624;23.334;2023-05-09T06:48:13;93649.81;;;14.28;100.00
12475;BME280;6302;42.624;23.334;2023-05-09T06:50:40;93654.28;;;14.35;100.00
12475;BME280;6302;42.624;23.334;2023-05-09T06:53:07;93641.38;;;14.33;100.00
12475;BME280;6302;42.624;23.334;2023-05-09T06:55:35;93644.44;;;14.32;100.00
12475;BME280;6302;42.624;23.334;2023-05-09T06:58:02;93655.72;;;14.40;100.00
12475;BME280;6302;42.624;23.334;2023-05-09T07:00:29;93656.44;;;14.44;100.00
12475;BME280;6302;42.624;23.334;2023-05-09T07:02:56;93646.63;;;14.37;100.00
12475;BME280;6302;42.624;23.334;2023-05-09T07:05:22;93658.00;;;14.41;100.00
12475;BME280;6302;42.624;23.334;2023-05-09T07:07:49;93648.72;;;14.49;100.00
12475;BME280;6302;42.624;23.334;2023-05-09T07:10:19;93644.00;;;14.57;100.00
12475;BME280;6302;42.624;23.334;2023-05-09T07:12:47;93650.03;;;14.61;100.00
12475;BME280;6302;42.624;23.334;2023-05-09T07:15:15;93646.28;;;14.58;100.00
12475;BME280;6302;42.624;23.334;2023-05-09T07:17:42;93650.91;;;14.54;100.00
12475;BME280;6302;42.624;23.334;2023-05-09T07:20:09;93655.91;;;14.52;100.00
12475;BME280;6302;42.624;23.334;2023-05-09T07:22:36;93661.31;;;14.49;100.00
12475;BME280;6302;42.624;23.334;2023-05-09T07:25:03;93661.94;;;14.56;100.00
12475;BME280;6302;42.624;23.334;2023-05-09T07:27:30;93658.34;;;14.66;100.00
12475;BME280;6302;42.624;23.334;2023-05-09T07:29:58;93657.97;;;14.64;100.00
12475;BME280;6302;42.624;23.334;2023-05-09T07:32:25;93638.34;;;14.55;100.00
12475;BME280;6302;42.624;23.334;2023-05-09T07:34:53;93653.47;;;14.61;100.00
12475;BME280;6302;42.624;23.334;2023-05-09T07:37:19;93652.16;;;14.69;100.00
12475;BME280;6302;42.624;23.334;2023-05-09T07:39:46;93657.38;;;14.76;100.00
12475;BME280;6302;42.624;23.334;2023-05-09T07:42:13;93645.56;;;14.77;100.00
12475;BME280;6302;42.624;23.334;2023-05-09T07:44:40;93666.56;;;14.75;100.00
12475;BME280;6302;42.624;23.334;2023-05-09T07:47:08;93668.41;;;14.78;100.00
12475;BME280;6302;42.624;23.334;2023-05-09T07:49:35;93664.91;;;14.81;100.00
12475;BME280;6302;42.624;23.334;2023-05-09T07:52:03;93656.78;;;14.88;100.00
12475;BME280;6302;42.624;23.334;2023-05-09T07:54:29;93658.75;;;14.84;100.00
12475;BME280;6302;42.624;23.334;2023-05-09T07:56:56;93650.91;;;14.97;100.00
12475;BME280;6302;42.624;23.334;2023-05-09T07:59:23;93654.75;;;14.96;100.00
12475;BME280;6302;42.624;23.334;2023-05-09T08:01:50;93659.88;;;15.07;100.00
12475;BME280;6302;42.624;23.334;2023-05-09T08:04:20;93631.75;;;14.82;100.00
12475;BME280;6302;42.624;23.334;2023-05-09T08:06:48;93650.00;;;15.04;100.00
12475;BME280;6302;42.624;23.334;2023-05-09T08:09:14;93656.09;;;15.24;100.00
12475;BME280;6302;42.624;23.334;2023-05-09T08:11:43;93657.81;;;15.14;100.00
12475;BME280;6302;42.624;23.334;2023-05-09T08:14:10;93652.47;;;15.14;100.00
12475;BME280;6302;42.624;23.334;2023-05-09T08:16:36;93655.91;;;15.15;100.00
12475;BME280;6302;42.624;23.334;2023-05-09T08:19:03;93658.22;;;15.13;100.00
12475;BME280;6302;42.624;23.334;2023-05-09T08:21:31;93659.06;;;15.10;100.00
12475;BME280;6302;42.624;23.334;2023-05-09T08:23:58;93659.25;;;14.99;100.00
12475;BME280;6302;42.624;23.334;2023-05-09T08:26:26;93658.50;;;14.98;100.00
12475;BME280;6302;42.624;23.334;2023-05-09T08:28:52;93659.66;;;14.97;100.00
12475;BME280;6302;42.624;23.334;2023-05-09T08:31:19;93660.69;;;15.04;100.00
12475;BME280;6302;42.624;23.334;2023-05-09T08:33:46;93661.84;;;15.03;100.00
12475;BME280;6302;42.624;23.334;2023-05-09T08:36:13;93652.94;;;15.09;100.00
12475;BME280;6302;42.624;23.334;2023-05-09T08:38:41;93650.56;;;15.15;100.00
12475;BME280;6302;42.624;23.334;2023-05-09T08:41:08;93660.56;;;15.11;100.00
12475;BME280;6302;42.624;23.334;2023-05-09T08:43:35;93656.72;;;15.12;100.00
12475;BME280;6302;42.624;23.334;2023-05-09T08:46:06;93654.13;;;15.08;100.00
12475;BME280;6302;42.624;23.334;2023-05-09T08:48:33;93656.03;;;15.08;100.00
12475;BME280;6302;42.624;23.334;2023-05-09T08:51:03;93650.22;;;14.93;100.00
12475;BME280;6302;42.624;23.334;2023-05-09T08:53:30;93646.31;;;14.97;100.00
12475;BME280;6302;42.624;23.334;2023-05-09T08:55:59;93650.63;;;14.91;100.00
12475;BME280;6302;42.624;23.334;2023-05-09T08:58:26;93647.28;;;14.87;100.00
12475;BME280;6302;42.624;23.334;2023-05-09T09:00:54;93648.09;;;14.84;100.00
12475;BME280;6302;42.624;23.334;2023-05-09T09:03:23;93643.63;;;14.78;100.00
12475;BME280;6302;42.624;23.334;2023-05-09T09:05:51;93638.97;;;14.82;100.00
12475;BME280;6302;42.624;23.334;2023-05-09T09:08:19;93651.72;;;14.94;100.00
12475;BME280;6302;42.624;23.334;2023-05-09T09:10:47;93642.59;;;14.91;100.00
12475;BME280;6302;42.624;23.334;2023-05-09T09:13:16;93645.56;;;14.77;100.00
12475;BME280;6302;42.624;23.334;2023-05-09T09:15:44;93640.69;;;14.72;100.00
12475;BME280;6302;42.624;23.334;2023-05-09T09:18:19;93649.16;;;14.67;100.00
12475;BME280;6302;42.624;23.334;2023-05-09T09:20:52;93649.16;;;14.67;100.00
12475;BME280;6302;42.624;23.334;2023-05-09T09:23:23;93656.31;;;14.51;100.00
12475;BME280;6302;42.624;23.334;2023-05-09T09:25:56;93643.56;;;14.39;100.00
12475;BME280;6302;42.624;23.334;2023-05-09T09:28:25;93649.53;;;14.46;100.00
12475;BME280;6302;42.624;23.334;2023-05-09T09:30:52;93651.16;;;14.40;100.00
12475;BME280;6302;42.624;23.334;2023-05-09T09:33:19;93646.72;;;14.30;100.00
12475;BME280;6302;42.624;23.334;2023-05-09T09:35:47;93651.28;;;14.33;100.00
12475;BME280;6302;42.624;23.334;2023-05-09T09:38:16;93651.88;;;14.17;100.00
12475;BME280;6302;42.624;23.334;2023-05-09T09:40:48;93649.28;;;14.14;100.00
12475;BME280;6302;42.624;23.334;2023-05-09T09:43:14;93643.19;;;14.13;100.00
12475;BME280;6302;42.624;23.334;2023-05-09T09:45:43;93648.69;;;14.03;100.00
12475;BME280;6302;42.624;23.334;2023-05-09T09:48:13;93649.78;;;14.05;100.00
12475;BME280;6302;42.624;23.334;2023-05-09T09:50:40;93649.09;;;14.01;100.00
12475;BME280;6302;42.624;23.334;2023-05-09T09:53:07;93653.22;;;14.06;100.00
12475;BME280;6302;42.624;23.334;2023-05-09T09:55:34;93653.16;;;14.09;100.00
12475;BME280;6302;42.624;23.334;2023-05-09T09:58:01;93660.75;;;14.11;100.00
12475;BME280;6302;42.624;23.334;2023-05-09T10:00:28;93659.59;;;14.12;100.00
12475;BME280;6302;42.624;23.334;2023-05-09T10:02:58;93638.09;;;13.99;100.00
12475;BME280;6302;42.624;23.334;2023-05-09T10:05:27;93650.78;;;14.15;100.00
12475;BME280;6302;42.624;23.334;2023-05-09T10:07:55;93645.34;;;14.22;100.00
12475;BME280;6302;42.624;23.334;2023-05-09T10:10:25;93640.72;;;14.26;100.00
12475;BME280;6302;42.624;23.334;2023-05-09T10:12:55;93639.06;;;14.36;100.00
12475;BME280;6302;42.624;23.334;2023-05-09T10:15:22;93647.19;;;14.25;100.00
12475;BME280;6302;42.624;23.334;2023-05-09T10:17:53;93648.69;;;14.26;100.00
12475;BME280;6302;42.624;23.334;2023-05-09T10:20:23;93648.94;;;14.35;100.00
12475;BME280;6302;42.624;23.334;2023-05-09T10:22:53;93649.03;;;14.31;100.00
12475;BME280;6302;42.624;23.334;2023-05-09T10:25:26;93643.50;;;14.42;100.00
12475;BME280;6302;42.624;23.334;2023-05-09T10:27:54;93641.81;;;14.52;100.00
12475;BME280;6302;42.624;23.334;2023-05-09T10:30:28;93638.56;;;14.64;100.00
12475;BME280;6302;42.624;23.334;2023-05-09T10:33:01;93637.53;;;14.77;100.00
12475;BME280;6302;42.624;23.334;2023-05-09T10:35:32;93640.50;;;14.83;100.00
12475;BME280;6302;42.624;23.334;2023-05-09T10:38:00;93641.91;;;14.68;100.00
12475;BME280;6302;42.624;23.334;2023-05-09T10:40:27;93640.13;;;14.61;100.00
12475;BME280;6302;42.624;23.334;2023-05-09T10:42:54;93649.88;;;14.71;100.00
12475;BME280;6302;42.624;23.334;2023-05-09T10:45:21;93637.50;;;14.81;100.00
12475;BME280;6302;42.624;23.334;2023-05-09T10:47:50;93637.41;;;14.84;100.00
12475;BME280;6302;42.624;23.334;2023-05-09T10:50:19;93639.13;;;14.75;100.00
12475;BME280;6302;42.624;23.334;2023-05-09T10:53:12;93647.88;;;14.75;100.00
12475;BME280;6302;42.624;23.334;2023-05-09T10:55:51;93642.06;;;14.80;100.00
12475;BME280;6302;42.624;23.334;2023-05-09T10:58:22;93647.22;;;14.91;100.00
12475;BME280;6302;42.624;23.334;2023-05-09T11:00:50;93647.56;;;14.93;100.00
12475;BME280;6302;42.624;23.334;2023-05-09T11:03:17;93642.56;;;14.95;100.00
12475;BME280;6302;42.624;23.334;2023-05-09T11:05:45;93637.69;;;14.90;100.00
12475;BME280;6302;42.624;23.334;2023-05-09T11:08:25;93636.66;;;14.84;100.00
12475;BME280;6302;42.624;23.334;2023-05-09T11:10:52;93639.47;;;14.96;100.00
12475;BME280;6302;42.624;23.334;2023-05-09T11:13:21;93638.03;;;14.92;100.00
12475;BME280;6302;42.624;23.334;2023-05-09T11:16:08;93634.28;;;14.89;100.00
12475;BME280;6302;42.624;23.334;2023-05-09T11:18:51;93635.78;;;14.90;100.00
12475;BME280;6302;42.624;23.334;2023-05-09T11:21:19;93633.88;;;14.91;100.00
12475;BME280;6302;42.624;23.334;2023-05-09T11:23:48;93633.66;;;15.02;100.00
12475;BME280;6302;42.624;23.334;2023-05-09T11:26:20;93638.13;;;15.08;100.00
12475;BME280;6302;42.624;23.334;2023-05-09T11:28:52;93641.50;;;15.09;100.00
12475;BME280;6302;42.624;23.334;2023-05-09T11:31:21;93633.94;;;15.07;100.00
12475;BME280;6302;42.624;23.334;2023-05-09T11:33:49;93643.72;;;15.14;100.00
12475;BME280;6302;42.624;23.334;2023-05-09T11:36:27;93642.97;;;15.13;100.00
12475;BME280;6302;42.624;23.334;2023-05-09T11:39:02;93649.19;;;15.07;100.00
12475;BME280;6302;42.624;23.334;2023-05-09T11:41:29;93640.22;;;14.97;100.00
12475;BME280;6302;42.624;23.334;2023-05-09T11:43:57;93640.50;;;15.03;100.00
12475;BME280;6302;42.624;23.334;2023-05-09T11:46:25;93637.16;;;14.98;100.00
12475;BME280;6302;42.624;23.334;2023-05-09T11:48:52;93641.88;;;14.91;100.00
12475;BME280;6302;42.624;23.334;2023-05-09T11:51:20;93638.44;;;14.90;100.00
12475;BME280;6302;42.624;23.334;2023-05-09T11:53:48;93633.72;;;14.78;100.00
12475;BME280;6302;42.624;23.334;2023-05-09T11:56:20;93639.31;;;14.64;100.00
12475;BME280;6302;42.624;23.334;2023-05-09T11:58:51;93637.81;;;14.63;100.00
12475;BME280;6302;42.624;23.334;2023-05-09T12:01:18;93632.84;;;14.42;100.00
12475;BME280;6302;42.624;23.334;2023-05-09T12:03:45;93631.19;;;14.25;100.00
12475;BME280;6302;42.624;23.334;2023-05-09T12:06:15;93629.44;;;14.15;100.00
12475;BME280;6302;42.624;23.334;2023-05-09T12:08:45;93636.59;;;14.21;100.00
12475;BME280;6302;42.624;23.334;2023-05-09T12:11:13;93634.78;;;14.15;100.00
12475;BME280;6302;42.624;23.334;2023-05-09T12:13:46;93644.75;;;14.11;100.00
12475;BME280;6302;42.624;23.334;2023-05-09T12:16:13;93626.22;;;14.04;100.00
12475;BME280;6302;42.624;23.334;2023-05-09T12:18:44;93630.47;;;13.98;100.00
12475;BME280;6302;42.624;23.334;2023-05-09T12:21:11;93633.47;;;13.77;100.00
12475;BME280;6302;42.624;23.334;2023-05-09T12:23:38;93631.28;;;13.72;100.00
12475;BME280;6302;42.624;23.334;2023-05-09T12:26:05;93631.72;;;13.66;100.00
12475;BME280;6302;42.624;23.334;2023-05-09T12:28:33;93631.72;;;13.66;100.00
12475;BME280;6302;42.624;23.334;2023-05-09T12:31:02;93631.97;;;13.49;100.00
12475;BME280;6302;42.624;23.334;2023-05-09T12:33:30;93633.53;;;13.46;100.00
12475;BME280;6302;42.624;23.334;2023-05-09T12:36:02;93634.84;;;13.31;100.00
12475;BME280;6302;42.624;23.334;2023-05-09T12:38:29;93622.50;;;13.18;100.00
12475;BME280;6302;42.624;23.334;2023-05-09T12:41:00;93622.28;;;13.01;100.00
12475;BME280;6302;42.624;23.334;2023-05-09T12:43:29;93623.66;;;12.79;100.00
12475;BME280;6302;42.624;23.334;2023-05-09T12:45:56;93626.03;;;12.74;100.00
12475;BME280;6302;42.624;23.334;2023-05-09T12:48:25;93623.72;;;12.76;100.00
12475;BME280;6302;42.624;23.334;2023-05-09T12:50:52;93618.41;;;12.76;100.00
12475;BME280;6302;42.624;23.334;2023-05-09T12:53:25;93613.97;;;12.62;100.00
12475;BME280;6302;42.624;23.334;2023-05-09T12:55:54;93613.19;;;12.65;100.00